createdAt,value
2023-02-19T00:02:39.153Z,6.23
2023-02-19T00:05:22.351Z,6.03
2023-02-19T00:08:06.032Z,6.16
2023-02-19T00:10:51.287Z,6.15
2023-02-19T00:13:39.151Z,6.16
2023-02-19T00:16:24.474Z,6.12
2023-02-19T00:19:09.389Z,5.86
2023-02-19T00:21:53.624Z,5.90
2023-02-19T00:24:36.873Z,5.83
2023-02-19T00:27:20.076Z,5.82
2023-02-19T00:30:07.422Z,5.69
2023-02-19T00:32:52.453Z,5.77
2023-02-19T00:35:35.900Z,5.83
2023-02-19T00:38:19.067Z,5.79
2023-02-19T00:41:02.604Z,5.69
2023-02-19T00:43:46.052Z,5.58
2023-02-19T00:46:33.282Z,5.61
2023-02-19T00:49:18.995Z,5.53
2023-02-19T00:52:02.194Z,5.50
2023-02-19T00:54:45.346Z,5.39
2023-02-19T00:57:28.884Z,5.40
2023-02-19T01:00:14.037Z,5.35
2023-02-19T01:02:58.627Z,5.23
2023-02-19T01:05:41.659Z,5.28
2023-02-19T01:08:24.881Z,5.27
2023-02-19T01:11:09.707Z,5.18
2023-02-19T01:13:53.032Z,5.12
2023-02-19T01:16:36.192Z,5.19
2023-02-19T01:19:20.820Z,5.22
2023-02-19T01:22:03.974Z,5.23
2023-02-19T01:24:48.175Z,5.19
2023-02-19T01:27:31.387Z,5.13
2023-02-19T01:30:15.155Z,5.15
2023-02-19T01:33:00.713Z,5.18
2023-02-19T01:35:45.331Z,5.16
2023-02-19T01:38:29.560Z,5.12
2023-02-19T01:41:15.093Z,5.03
2023-02-19T01:44:02.688Z,4.84
2023-02-19T01:46:48.590Z,4.80
2023-02-19T01:49:33.845Z,4.79
2023-02-19T01:52:26.172Z,4.85
2023-02-19T01:55:13.971Z,4.81
2023-02-19T01:57:57.468Z,4.81
2023-02-19T02:00:40.796Z,4.76
2023-02-19T02:03:24.351Z,4.69
2023-02-19T02:06:13.740Z,4.83
2023-02-19T02:09:18.157Z,4.67
2023-02-19T02:12:01.616Z,4.73
2023-02-19T02:14:46.730Z,4.73
2023-02-19T02:17:38.889Z,4.74
2023-02-19T02:20:55.927Z,4.60
2023-02-19T02:23:53.893Z,4.66
2023-02-19T02:26:52.453Z,4.59
2023-02-19T02:30:04.259Z,4.62
2023-02-19T02:32:56.140Z,4.62
2023-02-19T02:35:42.960Z,4.72
2023-02-19T02:38:30.352Z,4.67
2023-02-19T02:41:15.241Z,4.64
2023-02-19T02:43:58.601Z,4.65
2023-02-19T02:46:46.909Z,4.52
2023-02-19T02:49:30.105Z,4.45
2023-02-19T02:52:37.772Z,4.54
2023-02-19T02:55:20.241Z,4.62
2023-02-19T02:58:04.408Z,4.70
2023-02-19T03:01:13.089Z,4.84
2023-02-19T03:04:06.749Z,4.78
2023-02-19T03:06:52.353Z,4.78
2023-02-19T03:09:40.725Z,4.78
2023-02-19T03:12:44.008Z,4.85
2023-02-19T03:15:47.529Z,4.83
2023-02-19T03:18:51.635Z,4.71
2023-02-19T03:21:38.407Z,4.71
2023-02-19T03:24:44.878Z,4.59
2023-02-19T03:27:32.776Z,4.53
2023-02-19T03:30:19.700Z,4.47
2023-02-19T03:33:08.729Z,4.47
2023-02-19T03:35:58.333Z,4.40
2023-02-19T03:38:49.026Z,4.36
2023-02-19T03:41:36.770Z,4.33
2023-02-19T03:44:26.714Z,4.36
2023-02-19T03:47:18.266Z,4.32
2023-02-19T03:50:08.245Z,4.15
2023-02-19T03:53:01.786Z,4.13
2023-02-19T03:55:55.633Z,4.17
2023-02-19T03:58:45.943Z,4.20
2023-02-19T04:01:35.858Z,4.20
2023-02-19T04:04:26.564Z,4.17
2023-02-19T04:07:09.707Z,4.05
2023-02-19T04:09:53.511Z,4.02
2023-02-19T04:12:40.704Z,4.03
2023-02-19T04:15:29.302Z,4.03
2023-02-19T04:18:16.725Z,4.03
2023-02-19T04:21:02.028Z,4.10
2023-02-19T04:23:47.152Z,4.11
2023-02-19T04:26:33.276Z,4.12
2023-02-19T04:29:19.074Z,4.04
2023-02-19T04:32:02.389Z,4.06
2023-02-19T04:34:46.594Z,4.03
2023-02-19T04:37:31.866Z,4.08
2023-02-19T04:40:16.296Z,4.04
2023-02-19T04:42:59.635Z,3.98
2023-02-19T04:45:44.093Z,4.21
2023-02-19T04:48:27.294Z,4.23
2023-02-19T04:51:14.819Z,4.35
2023-02-19T04:53:57.996Z,4.44
2023-02-19T04:56:41.724Z,4.39
2023-02-19T04:59:24.688Z,4.34
2023-02-19T05:02:09.608Z,4.38
2023-02-19T05:04:52.980Z,4.30
2023-02-19T05:07:36.354Z,4.27
2023-02-19T05:10:19.475Z,4.23
2023-02-19T05:13:02.837Z,4.20
2023-02-19T05:15:56.153Z,4.32
2023-02-19T05:18:41.646Z,4.26
2023-02-19T05:21:24.932Z,4.34
2023-02-19T05:24:11.648Z,4.40
2023-02-19T05:26:54.721Z,4.39
2023-02-19T05:29:37.718Z,4.49
2023-02-19T05:32:20.894Z,4.62
2023-02-19T05:35:05.618Z,4.71
2023-02-19T05:37:49.025Z,4.85
2023-02-19T05:40:32.088Z,5.01
2023-02-19T05:43:15.667Z,5.23
2023-02-19T05:45:59.865Z,5.31
2023-02-19T05:48:43.422Z,5.55
2023-02-19T05:51:28.409Z,5.72
2023-02-19T05:54:11.912Z,5.82
2023-02-19T05:56:55.593Z,6.06
2023-02-19T05:59:38.683Z,6.23
2023-02-19T06:02:21.956Z,6.44
2023-02-19T06:05:05.922Z,6.80
2023-02-19T06:07:51.422Z,7.03
2023-02-19T06:10:37.620Z,7.14
2023-02-19T06:13:20.711Z,7.62
2023-02-19T06:16:05.451Z,7.85
2023-02-19T06:18:49.517Z,8.10
2023-02-19T06:21:32.725Z,8.46
2023-02-19T06:24:17.196Z,8.65
2023-02-19T06:27:00.285Z,8.57
2023-02-19T06:29:43.419Z,9.00
2023-02-19T06:32:27.019Z,9.38
2023-02-19T06:35:10.104Z,10.02
2023-02-19T06:37:53.191Z,10.35
2023-02-19T06:40:37.651Z,11.15
2023-02-19T06:43:20.993Z,11.70
2023-02-19T06:46:06.682Z,12.30
2023-02-19T06:48:50.148Z,13.57
2023-02-19T06:51:33.522Z,15.43
2023-02-19T06:54:16.849Z,17.35
2023-02-19T06:57:01.799Z,17.73
2023-02-19T06:59:45.410Z,19.28
2023-02-19T07:02:28.857Z,21.22
2023-02-19T07:05:12.195Z,21.15
2023-02-19T07:07:55.249Z,22.21
2023-02-19T07:10:38.556Z,23.70
2023-02-19T07:13:23.025Z,25.06
2023-02-19T07:16:10.027Z,25.93
2023-02-19T07:18:54.076Z,27.94
2023-02-19T07:21:38.007Z,29.93
2023-02-19T07:24:21.706Z,30.91
2023-02-19T07:27:05.212Z,32.49
2023-02-19T07:29:49.797Z,33.87
2023-02-19T07:32:34.234Z,34.60
2023-02-19T07:35:17.393Z,36.07
2023-02-19T07:38:00.462Z,37.49
2023-02-19T07:40:43.695Z,38.88
2023-02-19T07:43:28.364Z,40.18
2023-02-19T07:46:15.506Z,40.41
2023-02-19T07:48:59.197Z,40.98
2023-02-19T07:51:43.984Z,41.72
2023-02-19T07:54:27.166Z,41.43
2023-02-19T07:57:10.368Z,39.64
2023-02-19T07:59:53.437Z,40.34
2023-02-19T08:02:55.548Z,41.41
2023-02-19T08:05:41.656Z,42.67
2023-02-19T08:08:24.782Z,43.92
2023-02-19T08:11:26.462Z,41.50
2023-02-19T08:14:09.625Z,43.37
2023-02-19T08:16:53.940Z,42.10
2023-02-19T08:19:40.217Z,42.87
2023-02-19T08:22:23.797Z,40.97
2023-02-19T08:25:08.307Z,41.53
2023-02-19T08:27:54.125Z,42.91
2023-02-19T08:30:39.514Z,44.04
2023-02-19T08:33:23.155Z,43.29
2023-02-19T08:36:10.276Z,42.00
2023-02-19T08:38:53.618Z,42.77
2023-02-19T08:41:37.069Z,43.57
2023-02-19T08:44:20.316Z,42.41
2023-02-19T08:47:06.112Z,43.56
2023-02-19T08:49:49.710Z,43.43
2023-02-19T08:52:34.663Z,45.74
2023-02-19T08:55:18.194Z,47.28
2023-02-19T08:58:02.629Z,46.81
2023-02-19T09:00:48.416Z,46.58
2023-02-19T09:03:31.662Z,47.53
2023-02-19T09:06:17.076Z,46.51
2023-02-19T09:09:01.539Z,47.33
2023-02-19T09:11:49.225Z,47.66
2023-02-19T09:14:33.218Z,47.75
2023-02-19T09:17:17.925Z,48.04
2023-02-19T09:20:01.345Z,46.90
2023-02-19T09:22:44.718Z,49.59
2023-02-19T09:25:29.658Z,47.62
2023-02-19T09:28:12.796Z,48.91
2023-02-19T09:30:56.268Z,49.49
2023-02-19T09:33:39.794Z,50.97
2023-02-19T09:36:23.320Z,50.70
2023-02-19T09:39:07.838Z,49.99
2023-02-19T09:41:59.032Z,49.48
2023-02-19T09:44:45.355Z,42.65
2023-02-19T09:47:31.456Z,41.88
2023-02-19T09:50:19.509Z,39.40
2023-02-19T09:53:05.943Z,36.95
2023-02-19T09:55:49.245Z,34.28
2023-02-19T09:58:36.373Z,31.37
2023-02-19T10:01:20.075Z,29.38
2023-02-19T10:04:03.389Z,27.36
2023-02-19T10:06:49.497Z,28.45
2023-02-19T10:09:32.619Z,32.43
2023-02-19T10:12:19.874Z,37.00
2023-02-19T10:15:13.749Z,37.84
2023-02-19T10:17:57.462Z,39.48
2023-02-19T10:20:42.042Z,40.76
2023-02-19T10:23:27.355Z,42.22
2023-02-19T10:26:11.237Z,42.56
2023-02-19T10:28:55.724Z,43.65
2023-02-19T10:31:40.710Z,43.90
2023-02-19T10:34:25.363Z,45.74
2023-02-19T10:37:14.915Z,43.54
2023-02-19T10:39:58.853Z,43.86
2023-02-19T10:42:48.225Z,43.08
2023-02-19T10:45:36.248Z,43.40
2023-02-19T10:48:30.631Z,41.70
2023-02-19T10:51:22.064Z,45.24
2023-02-19T10:54:08.114Z,44.90
2023-02-19T10:56:51.530Z,44.37
2023-02-19T10:59:34.879Z,43.78
2023-02-19T11:02:20.408Z,45.58
2023-02-19T11:05:18.186Z,45.74
2023-02-19T11:08:01.470Z,45.28
2023-02-19T11:10:50.086Z,44.51
2023-02-19T11:13:38.366Z,42.87
2023-02-19T11:16:22.092Z,42.86
2023-02-19T11:19:05.479Z,43.98
2023-02-19T11:21:50.368Z,44.80
2023-02-19T11:24:37.636Z,45.57
2023-02-19T11:27:26.322Z,46.78
2023-02-19T11:30:36.917Z,46.61
2023-02-19T11:33:28.481Z,47.92
2023-02-19T11:36:34.999Z,50.43
2023-02-19T11:39:32.020Z,52.16
2023-02-19T11:42:29.568Z,51.79
2023-02-19T11:45:23.889Z,49.75
2023-02-19T11:48:32.765Z,50.60
2023-02-19T11:51:34.059Z,49.27
2023-02-19T11:54:30.841Z,48.27
2023-02-19T11:57:30.978Z,43.35
2023-02-19T12:00:28.638Z,36.62
2023-02-19T12:03:33.182Z,32.40
2023-02-19T12:06:26.955Z,29.87
2023-02-19T12:09:27.140Z,28.93
2023-02-19T12:12:29.971Z,26.93
2023-02-19T12:15:42.050Z,26.02
2023-02-19T12:19:05.223Z,24.47
2023-02-19T12:22:01.861Z,22.97
2023-02-19T12:25:26.635Z,21.78
2023-02-19T12:28:35.297Z,20.96
2023-02-19T12:31:42.029Z,20.57
2023-02-19T12:34:46.109Z,20.21
2023-02-19T12:37:42.623Z,19.91
2023-02-19T12:40:39.984Z,19.48
2023-02-19T12:43:25.876Z,19.25
2023-02-19T12:46:14.877Z,19.27
2023-02-19T12:49:07.089Z,19.07
2023-02-19T12:51:55.226Z,18.89
2023-02-19T12:54:43.478Z,18.81
2023-02-19T12:57:31.356Z,18.63
2023-02-19T13:00:29.004Z,18.77
2023-02-19T13:03:22.132Z,18.56
2023-02-19T13:06:13.874Z,18.75
2023-02-19T13:09:07.008Z,18.41
2023-02-19T13:11:54.058Z,18.45
2023-02-19T13:14:42.916Z,18.30
2023-02-19T13:17:39.200Z,18.46
2023-02-19T13:20:29.609Z,18.39
2023-02-19T13:23:37.288Z,18.21
2023-02-19T13:26:44.361Z,18.31
2023-02-19T13:29:42.037Z,18.21
2023-02-19T13:32:42.967Z,18.14
2023-02-19T13:35:39.283Z,18.04
2023-02-19T13:38:22.569Z,18.03
2023-02-19T13:41:07.637Z,18.08
2023-02-19T13:43:57.803Z,17.93
2023-02-19T13:46:45.264Z,18.05
2023-02-19T13:49:50.085Z,18.05
2023-02-19T13:52:41.273Z,18.04
2023-02-19T13:55:52.558Z,18.07
2023-02-19T13:59:01.635Z,17.87
2023-02-19T14:02:30.833Z,17.77
2023-02-19T14:05:15.453Z,17.65
2023-02-19T14:07:58.767Z,17.65
2023-02-19T14:11:02.703Z,17.79
2023-02-19T14:14:09.747Z,17.86
2023-02-19T14:17:07.580Z,18.04
2023-02-19T14:19:59.022Z,18.01
2023-02-19T14:23:10.110Z,18.01
2023-02-19T14:25:58.622Z,17.92
2023-02-19T14:28:46.734Z,18.02
2023-02-19T14:31:32.000Z,17.99
2023-02-19T14:34:22.503Z,18.12
2023-02-19T14:37:10.706Z,18.13
2023-02-19T14:39:57.860Z,18.05
2023-02-19T14:42:43.746Z,17.89
2023-02-19T14:45:30.150Z,18.12
2023-02-19T14:48:21.749Z,17.98
2023-02-19T14:51:08.992Z,18.15
2023-02-19T14:53:54.633Z,18.19
2023-02-19T14:56:39.995Z,18.15
2023-02-19T14:59:26.511Z,17.73
2023-02-19T15:02:17.988Z,17.97
2023-02-19T15:05:01.381Z,18.07
2023-02-19T15:07:45.718Z,17.97
2023-02-19T15:10:30.371Z,17.88
2023-02-19T15:13:24.572Z,17.83
2023-02-19T15:16:08.842Z,17.69
2023-02-19T15:18:53.605Z,17.62
2023-02-19T15:21:41.282Z,17.61
2023-02-19T15:24:25.672Z,17.48
2023-02-19T15:27:19.733Z,17.18
2023-02-19T15:30:04.533Z,16.85
2023-02-19T15:32:54.105Z,16.94
2023-02-19T15:35:37.533Z,16.85
2023-02-19T15:38:21.305Z,16.61
2023-02-19T15:41:04.692Z,16.60
2023-02-19T15:43:54.004Z,16.61
2023-02-19T15:46:39.738Z,16.15
2023-02-19T15:49:31.194Z,16.22
2023-02-19T15:52:22.526Z,16.20
2023-02-19T15:55:30.469Z,16.05
2023-02-19T15:58:21.049Z,16.03
2023-02-19T16:01:08.402Z,15.95
2023-02-19T16:03:55.322Z,15.75
2023-02-19T16:06:53.346Z,15.64
2023-02-19T16:09:38.910Z,15.62
2023-02-19T16:12:24.237Z,15.51
2023-02-19T16:15:15.805Z,15.48
2023-02-19T16:18:00.259Z,15.42
2023-02-19T16:20:49.048Z,15.36
2023-02-19T16:23:32.223Z,15.29
2023-02-19T16:26:16.311Z,15.28
2023-02-19T16:28:59.498Z,15.20
2023-02-19T16:31:49.924Z,15.08
2023-02-19T16:34:42.837Z,15.04
2023-02-19T16:37:38.444Z,14.91
2023-02-19T16:41:06.694Z,14.82
2023-02-19T16:43:49.832Z,14.81
2023-02-19T16:46:33.163Z,14.83
2023-02-19T16:49:17.974Z,14.77
2023-02-19T16:52:04.385Z,14.80
2023-02-19T16:54:50.921Z,14.72
2023-02-19T16:57:34.106Z,14.68
2023-02-19T17:00:19.094Z,14.57
2023-02-19T17:03:09.125Z,14.59
2023-02-19T17:05:53.448Z,14.48
2023-02-19T17:08:39.024Z,14.47
2023-02-19T17:11:23.937Z,14.45
2023-02-19T17:14:08.307Z,14.40
2023-02-19T17:16:52.786Z,14.39
2023-02-19T17:19:35.911Z,14.26
2023-02-19T17:22:19.005Z,14.25
2023-02-19T17:25:06.191Z,14.15
2023-02-19T17:27:53.958Z,14.15
2023-02-19T17:30:39.834Z,14.01
2023-02-19T17:33:23.280Z,13.93
2023-02-19T17:36:07.429Z,13.94
2023-02-19T17:38:50.530Z,13.87
2023-02-19T17:41:33.917Z,13.90
2023-02-19T17:44:18.897Z,13.85
2023-02-19T17:47:02.465Z,13.85
2023-02-19T17:49:45.844Z,13.80
2023-02-19T17:52:29.569Z,13.79
2023-02-19T17:55:18.485Z,13.71
2023-02-19T17:58:01.888Z,13.66
2023-02-19T18:00:46.441Z,13.70
2023-02-19T18:03:37.339Z,13.64
2023-02-19T18:06:23.421Z,13.65
2023-02-19T18:09:07.098Z,13.63
2023-02-19T18:11:50.405Z,13.57
2023-02-19T18:14:33.595Z,13.58
2023-02-19T18:17:18.554Z,13.39
2023-02-19T18:20:02.061Z,13.50
2023-02-19T18:22:45.208Z,13.43
2023-02-19T18:25:28.684Z,13.37
2023-02-19T18:28:12.058Z,13.41
2023-02-19T18:30:55.657Z,13.47
2023-02-19T18:33:40.269Z,13.40
2023-02-19T18:36:23.694Z,13.47
2023-02-19T18:39:06.794Z,13.42
2023-02-19T18:41:50.066Z,13.44
2023-02-19T18:44:34.609Z,13.40
2023-02-19T18:47:19.232Z,13.37
2023-02-19T18:50:04.273Z,13.35
2023-02-19T18:52:48.252Z,13.22
2023-02-19T18:55:31.934Z,13.18
2023-02-19T18:58:15.133Z,13.12
2023-02-19T19:00:58.972Z,12.97
2023-02-19T19:03:42.269Z,12.94
2023-02-19T19:06:28.136Z,12.86
2023-02-19T19:09:12.098Z,12.82
2023-02-19T19:11:56.061Z,12.81
2023-02-19T19:14:44.502Z,12.70
2023-02-19T19:17:30.551Z,12.74
2023-02-19T19:20:17.016Z,12.62
2023-02-19T19:23:02.209Z,12.59
2023-02-19T19:25:45.396Z,12.61
2023-02-19T19:28:28.783Z,12.62
2023-02-19T19:31:12.976Z,12.65
2023-02-19T19:33:56.236Z,12.78
2023-02-19T19:36:39.695Z,12.66
2023-02-19T19:39:24.215Z,12.68
2023-02-19T19:42:09.445Z,12.64
2023-02-19T19:44:52.933Z,12.62
2023-02-19T19:47:37.388Z,12.64
2023-02-19T19:50:20.835Z,12.71
2023-02-19T19:53:03.936Z,12.64
2023-02-19T19:55:48.690Z,12.65
2023-02-19T19:58:33.292Z,12.57
2023-02-19T20:01:21.046Z,12.60
2023-02-19T20:04:04.970Z,12.72
2023-02-19T20:06:48.662Z,12.71
2023-02-19T20:09:31.962Z,12.84
2023-02-19T20:12:17.740Z,12.86
2023-02-19T20:15:00.977Z,12.97
2023-02-19T20:17:44.386Z,12.99
2023-02-19T20:20:27.567Z,13.02
2023-02-19T20:23:11.040Z,13.00
2023-02-19T20:25:54.095Z,13.09
2023-02-19T20:28:45.110Z,13.01
2023-02-19T20:31:29.198Z,13.03
2023-02-19T20:34:12.339Z,13.06
2023-02-19T20:36:55.832Z,13.08
2023-02-19T20:39:39.191Z,13.12
2023-02-19T20:42:22.814Z,13.04
2023-02-19T20:45:07.965Z,12.94
2023-02-19T20:47:51.042Z,12.98
2023-02-19T20:50:34.112Z,13.06
2023-02-19T20:53:19.001Z,12.93
2023-02-19T20:56:02.199Z,12.95
2023-02-19T20:58:45.928Z,12.97
2023-02-19T21:01:32.569Z,12.93
2023-02-19T21:04:18.390Z,12.89
2023-02-19T21:07:04.762Z,12.84
2023-02-19T21:09:47.893Z,12.83
2023-02-19T21:12:31.596Z,12.76
2023-02-19T21:15:14.885Z,12.66
2023-02-19T21:17:59.430Z,12.44
2023-02-19T21:20:42.499Z,12.33
2023-02-19T21:23:25.684Z,12.25
2023-02-19T21:26:09.287Z,12.13
2023-02-19T21:28:52.766Z,12.13
2023-02-19T21:31:43.094Z,12.05
2023-02-19T21:34:29.341Z,11.95
2023-02-19T21:37:12.483Z,11.95
2023-02-19T21:39:55.742Z,11.76
2023-02-19T21:42:50.821Z,11.79
2023-02-19T21:45:33.944Z,11.80
2023-02-19T21:48:17.090Z,11.62
2023-02-19T21:51:02.238Z,11.54
2023-02-19T21:53:47.522Z,11.37
2023-02-19T21:56:33.567Z,11.48
2023-02-19T21:59:17.813Z,11.41
2023-02-19T22:02:00.893Z,11.36
2023-02-19T22:04:44.277Z,11.39
2023-02-19T22:07:30.725Z,11.40
2023-02-19T22:10:15.576Z,11.39
2023-02-19T22:12:59.170Z,11.38
2023-02-19T22:15:42.523Z,11.32
2023-02-19T22:18:25.694Z,11.32
2023-02-19T22:21:09.078Z,11.25
2023-02-19T22:23:55.544Z,11.20
2023-02-19T22:26:39.203Z,11.12
2023-02-19T22:29:22.361Z,11.11
2023-02-19T22:32:05.740Z,11.04
2023-02-19T22:34:49.114Z,11.11
2023-02-19T22:37:32.744Z,10.96
2023-02-19T22:40:17.393Z,11.02
2023-02-19T22:43:00.571Z,11.02
2023-02-19T22:45:43.932Z,10.94
2023-02-19T22:48:30.083Z,10.91
2023-02-19T22:51:14.919Z,10.97
2023-02-19T22:53:59.850Z,10.87
2023-02-19T22:56:44.880Z,10.82
2023-02-19T22:59:28.505Z,10.78
2023-02-19T23:02:11.524Z,10.74
2023-02-19T23:04:54.850Z,10.71
2023-02-19T23:07:38.335Z,10.61
2023-02-19T23:10:21.419Z,10.55
2023-02-19T23:13:05.928Z,10.47
2023-02-19T23:15:49.710Z,10.35
2023-02-19T23:18:33.718Z,10.30
2023-02-19T23:21:17.336Z,10.26
2023-02-19T23:24:01.245Z,10.22
2023-02-19T23:26:45.293Z,10.06
2023-02-19T23:29:31.011Z,10.13
2023-02-19T23:32:14.308Z,10.08
2023-02-19T23:34:57.432Z,10.11
2023-02-19T23:37:42.524Z,10.05
2023-02-19T23:40:25.569Z,10.07
2023-02-19T23:43:08.679Z,10.09
2023-02-19T23:45:55.649Z,9.94
2023-02-19T23:48:38.687Z,9.91
2023-02-19T23:51:21.746Z,9.94
2023-02-19T23:54:05.342Z,9.99
2023-02-19T23:56:48.704Z,9.96
2023-02-19T23:59:31.816Z,9.99
